createdAt,value
2022-10-20T00:06:57.214Z,6.81
2022-10-20T00:12:01.293Z,6.80
2022-10-20T00:17:05.432Z,6.84
2022-10-20T00:22:08.147Z,6.81
2022-10-20T00:27:12.416Z,6.77
2022-10-20T00:32:15.150Z,6.77
2022-10-20T00:37:17.762Z,6.74
2022-10-20T00:42:21.857Z,6.53
2022-10-20T00:47:35.482Z,6.65
2022-10-20T00:52:39.838Z,6.63
2022-10-20T00:57:47.536Z,6.69
2022-10-20T01:02:51.235Z,6.66
2022-10-20T01:07:54.060Z,6.57
2022-10-20T01:13:04.091Z,6.51
2022-10-20T01:18:17.355Z,6.67
2022-10-20T01:23:44.859Z,6.66
2022-10-20T01:28:55.817Z,6.61
2022-10-20T01:34:07.396Z,6.55
2022-10-20T01:39:17.247Z,6.56
2022-10-20T01:44:25.417Z,6.57
2022-10-20T01:49:29.086Z,6.46
2022-10-20T01:54:32.440Z,6.43
2022-10-20T01:59:48.382Z,6.51
2022-10-20T02:05:21.527Z,6.48
2022-10-20T02:10:28.768Z,6.57
2022-10-20T02:15:37.991Z,6.65
2022-10-20T02:20:44.005Z,6.61
2022-10-20T02:25:49.795Z,6.71
2022-10-20T02:30:53.959Z,6.61
2022-10-20T02:35:59.010Z,6.60
2022-10-20T02:41:01.773Z,6.62
2022-10-20T02:46:06.166Z,6.62
2022-10-20T02:51:08.974Z,6.53
2022-10-20T02:56:12.402Z,6.69
2022-10-20T03:01:16.609Z,6.63
2022-10-20T03:06:19.376Z,6.62
2022-10-20T03:11:21.934Z,6.57
2022-10-20T03:16:26.074Z,6.59
2022-10-20T03:21:28.818Z,6.52
2022-10-20T03:26:31.614Z,6.58
2022-10-20T03:31:35.774Z,6.50
2022-10-20T03:36:38.542Z,6.45
2022-10-20T03:41:41.314Z,6.40
2022-10-20T03:46:45.433Z,6.25
2022-10-20T03:51:48.149Z,6.37
2022-10-20T03:56:50.809Z,6.38
2022-10-20T04:01:55.250Z,6.32
2022-10-20T04:06:58.082Z,6.27
2022-10-20T04:12:00.856Z,6.26
2022-10-20T04:17:05.049Z,6.45
2022-10-20T04:22:08.313Z,6.27
2022-10-20T04:27:11.138Z,6.40
2022-10-20T04:32:15.325Z,6.39
2022-10-20T04:37:18.088Z,6.38
2022-10-20T04:42:21.474Z,6.42
2022-10-20T04:47:25.885Z,6.36
2022-10-20T04:52:29.775Z,6.34
2022-10-20T04:57:32.644Z,6.31
2022-10-20T05:02:36.841Z,6.46
2022-10-20T05:07:39.903Z,6.28
2022-10-20T05:12:43.039Z,6.50
2022-10-20T05:17:47.246Z,6.46
2022-10-20T05:22:49.975Z,6.47
2022-10-20T05:27:52.828Z,6.49
2022-10-20T05:32:57.085Z,6.39
2022-10-20T05:37:59.963Z,6.42
2022-10-20T05:43:02.709Z,6.37
2022-10-20T05:48:07.218Z,6.51
2022-10-20T05:53:09.964Z,6.37
2022-10-20T05:58:12.689Z,6.36
2022-10-20T06:03:17.573Z,6.35
2022-10-20T06:08:21.760Z,6.21
2022-10-20T06:13:24.486Z,6.25
2022-10-20T06:18:28.551Z,6.38
2022-10-20T06:23:31.400Z,6.39
2022-10-20T06:28:35.689Z,6.46
2022-10-20T06:33:40.031Z,6.44
2022-10-20T06:38:53.887Z,6.66
2022-10-20T06:43:59.193Z,6.97
2022-10-20T06:49:04.553Z,7.14
2022-10-20T06:54:07.499Z,7.35
2022-10-20T06:59:10.308Z,7.34
2022-10-20T07:04:16.363Z,7.65
2022-10-20T07:09:20.714Z,7.59
2022-10-20T07:14:24.064Z,7.85
2022-10-20T07:19:28.311Z,7.72
2022-10-20T07:24:31.077Z,7.99
2022-10-20T07:34:42.846Z,8.40
2022-10-20T07:39:45.567Z,8.97
2022-10-20T07:44:48.204Z,8.90
2022-10-20T07:49:52.362Z,8.74
2022-10-20T07:55:06.278Z,8.42
2022-10-20T08:00:18.045Z,8.72
2022-10-20T08:05:22.314Z,8.61
2022-10-20T08:10:25.099Z,8.82
2022-10-20T08:15:27.933Z,8.90
2022-10-20T08:20:40.896Z,8.78
2022-10-20T08:25:44.006Z,9.07
2022-10-20T08:30:46.757Z,9.33
2022-10-20T08:35:50.691Z,9.32
2022-10-20T08:40:53.596Z,9.36
2022-10-20T08:45:56.482Z,9.84
2022-10-20T08:51:00.872Z,9.81
2022-10-20T08:56:03.645Z,10.02
2022-10-20T09:01:14.984Z,10.46
2022-10-20T09:06:19.604Z,10.79
2022-10-20T09:11:25.214Z,11.06
2022-10-20T09:16:40.785Z,11.38
2022-10-20T09:21:50.657Z,11.89
2022-10-20T09:26:58.797Z,11.50
2022-10-20T09:32:16.708Z,11.65
2022-10-20T09:37:26.749Z,11.76
2022-10-20T09:42:32.373Z,11.50
2022-10-20T09:47:36.205Z,12.09
2022-10-20T09:52:47.497Z,12.15
2022-10-20T09:57:50.598Z,12.59
2022-10-20T10:03:09.836Z,13.43
2022-10-20T10:08:16.749Z,13.12
2022-10-20T10:13:25.784Z,13.18
2022-10-20T10:18:29.213Z,13.30
2022-10-20T10:23:36.441Z,14.26
2022-10-20T10:28:41.907Z,15.56
2022-10-20T10:33:44.673Z,15.73
2022-10-20T10:38:49.101Z,15.39
2022-10-20T10:44:00.312Z,16.43
2022-10-20T10:49:20.973Z,17.46
2022-10-20T10:54:46.023Z,17.17
2022-10-20T10:59:52.837Z,17.45
2022-10-20T11:05:28.558Z,15.94
2022-10-20T11:10:43.982Z,15.05
2022-10-20T11:16:01.433Z,14.78
2022-10-20T11:21:40.545Z,15.11
2022-10-20T11:26:47.644Z,14.95
2022-10-20T11:31:54.802Z,14.91
2022-10-20T11:37:03.515Z,15.20
2022-10-20T11:42:22.234Z,15.51
2022-10-20T11:47:32.824Z,15.50
2022-10-20T11:53:00.449Z,15.26
2022-10-20T11:58:21.780Z,15.10
2022-10-20T12:03:46.112Z,15.25
2022-10-20T12:09:13.437Z,15.86
2022-10-20T12:14:24.661Z,16.01
2022-10-20T12:19:29.624Z,15.35
2022-10-20T12:24:35.838Z,14.76
2022-10-20T12:29:58.974Z,15.03
2022-10-20T12:35:03.647Z,14.74
2022-10-20T12:40:25.951Z,15.07
2022-10-20T12:45:38.601Z,14.86
2022-10-20T12:50:42.226Z,14.63
2022-10-20T12:55:47.577Z,14.41
2022-10-20T13:01:12.594Z,13.89
2022-10-20T13:06:41.002Z,13.78
2022-10-20T13:11:53.761Z,13.83
2022-10-20T13:17:07.095Z,13.74
2022-10-20T13:22:35.484Z,13.89
2022-10-20T13:27:38.605Z,13.61
2022-10-20T13:33:11.001Z,13.23
2022-10-20T13:38:21.396Z,13.10
2022-10-20T13:43:32.873Z,12.93
2022-10-20T13:48:55.864Z,13.10
2022-10-20T13:54:01.811Z,13.18
2022-10-20T13:59:08.656Z,13.35
2022-10-20T14:04:26.155Z,13.44
2022-10-20T14:09:28.903Z,13.47
2022-10-20T14:14:31.929Z,13.53
2022-10-20T14:19:36.283Z,13.54
2022-10-20T14:24:43.724Z,13.51
2022-10-20T14:29:47.274Z,13.52
2022-10-20T14:34:59.981Z,13.33
2022-10-20T14:40:03.511Z,13.49
2022-10-20T14:45:07.463Z,13.39
2022-10-20T14:50:21.608Z,13.29
2022-10-20T14:55:31.920Z,13.10
2022-10-20T15:00:36.985Z,12.76
2022-10-20T15:05:44.387Z,12.60
2022-10-20T15:10:47.546Z,12.25
2022-10-20T15:15:50.726Z,11.79
2022-10-20T15:20:56.222Z,11.42
2022-10-20T15:26:02.847Z,11.39
2022-10-20T15:31:08.475Z,11.38
2022-10-20T15:36:15.873Z,11.44
2022-10-20T15:41:19.838Z,11.46
2022-10-20T15:46:23.223Z,11.57
2022-10-20T15:51:30.225Z,11.64
2022-10-20T15:56:33.690Z,11.39
2022-10-20T16:01:37.276Z,11.34
2022-10-20T16:06:42.219Z,11.34
2022-10-20T16:11:45.105Z,11.10
2022-10-20T16:16:47.955Z,11.19
2022-10-20T16:21:52.198Z,11.22
2022-10-20T16:26:55.073Z,11.04
2022-10-20T16:31:58.915Z,11.10
2022-10-20T16:37:03.148Z,10.90
2022-10-20T16:42:06.131Z,10.71
2022-10-20T16:47:10.866Z,10.89
2022-10-20T16:52:15.071Z,10.85
2022-10-20T16:57:17.940Z,10.84
2022-10-20T17:02:20.842Z,10.82
2022-10-20T17:07:25.087Z,10.61
2022-10-20T17:12:28.065Z,10.79
2022-10-20T17:17:30.705Z,10.73
2022-10-20T17:22:35.119Z,10.78
2022-10-20T17:27:38.171Z,10.95
2022-10-20T17:32:43.063Z,10.84
2022-10-20T17:37:47.257Z,10.65
2022-10-20T17:42:50.133Z,10.86
2022-10-20T17:47:53.271Z,10.99
2022-10-20T17:52:57.410Z,10.98
2022-10-20T17:58:04.891Z,11.02
2022-10-20T18:03:08.576Z,10.89
2022-10-20T18:08:12.720Z,11.04
2022-10-20T18:13:15.614Z,11.05
2022-10-20T18:18:18.421Z,11.13
2022-10-20T18:23:22.638Z,11.08
2022-10-20T18:28:25.458Z,11.03
2022-10-20T18:33:28.235Z,11.02
2022-10-20T18:38:32.541Z,11.05
2022-10-20T18:43:35.764Z,10.98
2022-10-20T18:48:40.315Z,10.90
2022-10-20T18:53:45.983Z,10.93
2022-10-20T18:58:50.853Z,10.93
2022-10-20T19:03:55.558Z,10.86
2022-10-20T19:09:01.881Z,10.91
2022-10-20T19:14:05.448Z,10.86
2022-10-20T19:19:09.511Z,10.71
2022-10-20T19:24:17.501Z,10.81
2022-10-20T19:29:21.875Z,10.66
2022-10-20T19:34:27.231Z,10.65
2022-10-20T19:39:34.224Z,10.74
2022-10-20T19:44:37.729Z,10.69
2022-10-20T19:49:41.014Z,10.62
2022-10-20T19:54:45.145Z,10.50
2022-10-20T19:59:47.897Z,10.59
2022-10-20T20:04:50.472Z,10.60
2022-10-20T20:09:54.587Z,10.57
2022-10-20T20:14:57.488Z,10.50
2022-10-20T20:20:00.221Z,10.48
2022-10-20T20:25:04.494Z,10.50
2022-10-20T20:30:08.340Z,10.49
2022-10-20T20:35:11.072Z,10.47
2022-10-20T20:40:15.266Z,10.50
2022-10-20T20:45:18.333Z,10.44
2022-10-20T20:50:21.064Z,10.41
2022-10-20T20:55:25.046Z,10.46
2022-10-20T21:00:27.903Z,10.44
2022-10-20T21:05:30.726Z,10.39
2022-10-20T21:10:35.942Z,10.43
2022-10-20T21:15:38.753Z,10.45
2022-10-20T21:20:41.523Z,10.35
2022-10-20T21:25:50.493Z,10.43
2022-10-20T21:30:54.455Z,10.37
2022-10-20T21:36:01.426Z,10.44
2022-10-20T21:41:07.380Z,10.45
2022-10-20T21:46:12.966Z,10.44
2022-10-20T21:51:17.810Z,10.37
2022-10-20T21:56:21.921Z,10.55
2022-10-20T22:01:25.966Z,10.53
2022-10-20T22:06:29.157Z,10.38
2022-10-20T22:11:35.608Z,10.45
2022-10-20T22:16:40.598Z,10.48
2022-10-20T22:21:45.638Z,10.42
2022-10-20T22:26:51.539Z,10.51
2022-10-20T22:31:54.340Z,10.46
2022-10-20T22:36:57.609Z,10.65
2022-10-20T22:42:01.697Z,10.64
2022-10-20T22:47:04.493Z,10.67
2022-10-20T22:52:07.262Z,10.59
2022-10-20T22:57:11.181Z,10.60
2022-10-20T23:02:13.989Z,10.71
2022-10-20T23:07:16.794Z,10.64
2022-10-20T23:12:20.945Z,10.66
2022-10-20T23:17:24.533Z,10.73
2022-10-20T23:22:27.383Z,10.81
2022-10-20T23:27:33.840Z,10.94
2022-10-20T23:32:36.647Z,11.09
2022-10-20T23:37:39.978Z,11.14
2022-10-20T23:42:44.381Z,11.10
2022-10-20T23:47:47.163Z,11.08
2022-10-20T23:52:49.934Z,11.27
2022-10-20T23:57:54.136Z,11.37
